Time;durP1;ratioP1;P1;durP2;ratioP2;P2;SDS_P1;SDS_P2;PMS_P1;PMS_P2;Temp;Humidity;BMP_temperature;BMP_pressure;BME280_temperature;BME280_humidity;BME280_pressure;Samples;Min_cycle;Max_cycle;Signal;HPM_P1;HPM_P2
2023/06/09 00:01:53;;;;;;;29.30;10.80;;;;;;;21.02;65.99;98751.30;67986;1276;1016436;-65
2023/06/09 00:04:57;;;;;;;29.40;10.50;;;;;;;21.05;65.18;98743.94;67986;1276;1017696;-65
2023/06/09 00:08:00;;;;;;;36.40;11.40;;;;;;;21.03;65.19;98745.23;67992;1276;1019250;-64
2023/06/09 00:11:02;;;;;;;30.20;10.10;;;;;;;20.95;65.81;98744.52;67945;1276;1016643;-64
2023/06/09 00:14:06;;;;;;;32.60;10.70;;;;;;;20.91;65.82;98745.34;67949;1276;1016451;-62
2023/06/09 00:17:10;;;;;;;31.40;11.90;;;;;;;20.75;66.93;98747.14;67979;1276;1015709;-63
2023/06/09 00:20:12;;;;;;;27.60;9.80;;;;;;;20.52;67.60;98746.77;67938;1276;1016374;-62
2023/06/09 00:23:16;;;;;;;25.60;10.60;;;;;;;20.36;67.05;98747.34;67989;1276;1016437;-64
2023/06/09 00:26:19;;;;;;;22.50;10.80;;;;;;;20.26;68.35;98743.75;67943;1276;1016302;-63
2023/06/09 00:29:22;;;;;;;22.30;9.90;;;;;;;20.13;69.14;98749.42;67960;1276;1016182;-62
2023/06/09 00:32:27;;;;;;;25.40;10.60;;;;;;;20.05;69.23;98745.21;67929;1276;1016380;-62
2023/06/09 00:35:33;;;;;;;24.00;10.50;;;;;;;20.04;69.48;98742.32;67960;1276;1016361;-63
2023/06/09 00:38:36;;;;;;;25.60;11.40;;;;;;;19.98;69.59;98733.89;67909;1276;1015992;-64
2023/06/09 00:41:40;;;;;;;23.90;10.70;;;;;;;20.02;69.93;98735.89;67925;1276;1016318;-65
2023/06/09 00:44:42;;;;;;;24.80;10.80;;;;;;;20.00;70.04;98737.70;67945;1276;1016298;-60
2023/06/09 00:47:45;;;;;;;;;;;;;;;20.14;69.61;98739.48;67922;1276;1016747;-65
2023/06/09 00:50:52;;;;;;;25.10;11.60;;;;;;;20.17;69.74;98730.38;67982;1276;1016037;-63
2023/06/09 00:53:55;;;;;;;;;;;;;;;20.13;69.77;98727.92;67922;1276;1016423;-63
2023/06/09 00:56:58;;;;;;;24.80;11.80;;;;;;;20.09;70.65;98728.70;67982;1276;1016278;-61
2023/06/09 01:00:00;;;;;;;;;;;;;;;20.08;70.66;98730.76;67998;1276;1016738;-61
2023/06/09 01:03:03;;;;;;;;;;;;;;;20.10;70.30;98729.58;67946;1276;1016475;-62
2023/06/09 01:06:08;;;;;;;25.80;10.90;;;;;;;20.01;70.72;98729.62;67937;1276;1016454;-64
2023/06/09 01:09:16;;;;;;;26.30;12.30;;;;;;;20.02;70.44;98724.73;67960;1276;1016468;-63
2023/06/09 01:12:19;;;;;;;;;;;;;;;20.10;70.24;98725.70;67935;1276;1016484;-62
2023/06/09 01:15:21;;;;;;;26.10;11.50;;;;;;;20.08;70.65;98721.95;67945;1276;1016436;-62
2023/06/09 01:18:25;;;;;;;27.90;11.70;;;;;;;20.22;70.68;98718.44;67981;1276;1016397;-66
2023/06/09 01:21:32;;;;;;;25.10;11.20;;;;;;;20.29;71.05;98715.91;67992;1276;1016384;-65
2023/06/09 01:24:35;;;;;;;27.40;11.10;;;;;;;20.38;71.07;98708.79;67925;1276;1016306;-61
2023/06/09 01:27:39;;;;;;;27.60;10.50;;;;;;;20.56;70.86;98708.07;67897;1276;1016479;-62
2023/06/09 01:30:42;;;;;;;26.60;11.80;;;;;;;20.61;70.70;98702.70;67982;1276;1016193;-65
2023/06/09 01:33:45;;;;;;;27.70;11.80;;;;;;;20.67;70.92;98705.23;67918;1253;1016442;-63
2023/06/09 01:36:47;;;;;;;;;;;;;;;20.80;70.52;98700.55;67944;1276;1016461;-61
2023/06/09 01:39:51;;;;;;;26.80;12.60;;;;;;;20.78;70.34;98698.66;67932;1276;1016463;-63
2023/06/09 01:42:54;;;;;;;32.00;12.90;;;;;;;20.72;70.22;98698.06;67974;1276;1016471;-64
2023/06/09 01:45:57;;;;;;;27.00;12.30;;;;;;;20.61;70.44;98693.67;67912;1276;1016345;-64
2023/06/09 01:49:00;;;;;;;27.20;12.20;;;;;;;20.51;71.23;98695.99;67910;1276;1016437;-64
2023/06/09 01:52:02;;;;;;;25.70;10.80;;;;;;;20.37;71.43;98700.56;67958;1276;1016399;-64
2023/06/09 01:55:09;;;;;;;25.30;11.10;;;;;;;20.32;71.45;98702.52;67961;1276;1016493;-62
2023/06/09 01:58:11;;;;;;;25.20;11.60;;;;;;;20.37;71.57;98702.02;67932;1276;1016208;-64
2023/06/09 02:01:14;;;;;;;;;;;;;;;20.45;71.04;98699.80;67933;1276;1016406;-62
2023/06/09 02:04:17;;;;;;;24.20;10.10;;;;;;;20.36;71.30;98699.93;67950;1276;1016523;-62
2023/06/09 02:07:21;;;;;;;27.10;10.50;;;;;;;20.35;71.58;98699.35;67921;1276;1016467;-61
2023/06/09 02:10:24;;;;;;;25.20;11.40;;;;;;;20.36;71.52;98700.92;67921;1276;1016293;-64
2023/06/09 02:13:27;;;;;;;24.50;12.00;;;;;;;20.37;71.93;98699.86;67960;1276;1016426;-64
2023/06/09 02:16:29;;;;;;;26.70;12.10;;;;;;;20.37;71.92;98696.20;67936;1276;1016320;-62
2023/06/09 02:19:37;;;;;;;26.70;11.60;;;;;;;20.38;71.68;98694.61;67977;1276;1018679;-64
2023/06/09 02:22:40;;;;;;;28.40;13.10;;;;;;;20.39;71.91;98693.23;67938;1276;1015974;-61
2023/06/09 02:25:43;;;;;;;27.90;13.20;;;;;;;20.47;72.11;98686.39;67962;1276;1016459;-64
2023/06/09 02:28:47;;;;;;;26.80;11.60;;;;;;;20.46;72.33;98683.14;67990;1276;1016496;-61
2023/06/09 02:31:50;;;;;;;24.50;10.50;;;;;;;20.50;72.48;98684.63;67968;1275;1016464;-62
2023/06/09 02:34:53;;;;;;;27.60;12.40;;;;;;;20.50;72.38;98682.94;67940;1276;1018252;-61
2023/06/09 02:37:57;;;;;;;24.00;10.90;;;;;;;20.53;72.76;98681.55;67938;1276;1016442;-61
2023/06/09 02:41:01;;;;;;;26.30;11.70;;;;;;;20.62;72.29;98683.09;67927;1276;1016135;-63
2023/06/09 02:44:04;;;;;;;25.20;11.50;;;;;;;20.59;72.32;98680.16;67981;1276;1016359;-65
2023/06/09 02:47:07;;;;;;;23.90;11.20;;;;;;;20.67;72.13;98685.45;67974;1276;1016114;-65
2023/06/09 02:50:10;;;;;;;25.10;12.60;;;;;;;20.77;71.85;98686.89;67955;1276;1016510;-63
2023/06/09 02:53:12;;;;;;;;;;;;;;;20.85;71.94;98686.18;67930;1276;1016417;-63
2023/06/09 02:56:15;;;;;;;25.90;12.00;;;;;;;20.97;71.81;98688.14;67901;1276;1016451;-63
2023/06/09 02:59:18;;;;;;;24.20;11.40;;;;;;;21.09;71.35;98690.79;67964;1276;1018554;-61
2023/06/09 03:02:20;;;;;;;24.30;12.00;;;;;;;21.08;71.56;98688.76;67887;1276;1016493;-62
2023/06/09 03:05:24;;;;;;;26.90;13.90;;;;;;;21.03;71.95;98693.75;67935;1276;1016449;-61
2023/06/09 03:08:27;;;;;;;27.60;13.60;;;;;;;20.98;72.70;98693.23;67910;1276;1016426;-62
2023/06/09 03:11:30;;;;;;;28.50;14.70;;;;;;;21.00;72.88;98690.27;67986;1276;1016301;-63
2023/06/09 03:14:33;;;;;;;28.90;15.20;;;;;;;21.00;73.44;98690.34;67903;1276;1016218;-61
2023/06/09 03:17:37;;;;;;;27.70;13.90;;;;;;;21.05;73.43;98691.55;67908;1276;1016828;-64
2023/06/09 03:20:39;;;;;;;27.30;13.70;;;;;;;21.01;74.20;98693.95;67916;1276;1016480;-61
2023/06/09 03:23:42;;;;;;;26.30;13.40;;;;;;;21.09;74.20;98699.32;67951;1276;1015721;-61
2023/06/09 03:26:45;;;;;;;26.80;13.30;;;;;;;21.23;73.73;98696.38;67889;1270;1016457;-59
2023/06/09 03:29:48;;;;;;;26.30;13.50;;;;;;;21.31;73.39;98702.14;67966;1276;1016280;-60
2023/06/09 03:32:50;;;;;;;28.90;12.30;;;;;;;21.33;73.40;98699.08;67954;1276;1016370;-60
2023/06/09 03:35:53;;;;;;;26.70;13.10;;;;;;;21.24;74.02;98704.60;67855;1276;1016426;-64
2023/06/09 03:38:56;;;;;;;26.00;12.90;;;;;;;21.24;74.08;98706.41;67927;1276;1015741;-61
2023/06/09 03:41:59;;;;;;;28.50;13.00;;;;;;;21.31;74.15;98712.29;67888;1276;1016358;-62
2023/06/09 03:45:03;;;;;;;26.50;12.60;;;;;;;21.43;73.85;98710.05;67930;1276;1016334;-64
2023/06/09 03:48:06;;;;;;;24.80;12.10;;;;;;;21.52;73.71;98715.55;67907;1276;1018772;-62
2023/06/09 03:51:12;;;;;;;25.90;11.80;;;;;;;21.55;73.94;98716.66;67845;1275;1016431;-64
2023/06/09 03:54:14;;;;;;;29.10;12.20;;;;;;;21.67;73.91;98717.66;67911;1269;1015917;-62
2023/06/09 03:57:17;;;;;;;26.20;12.40;;;;;;;21.84;73.43;98718.09;67867;1276;1016029;-63
2023/06/09 04:00:22;;;;;;;27.90;13.00;;;;;;;22.01;72.96;98723.06;67877;1276;1016407;-65
2023/06/09 04:03:25;;;;;;;27.40;12.90;;;;;;;22.15;72.92;98721.30;67870;1276;1017360;-63
2023/06/09 04:06:28;;;;;;;24.50;11.30;;;;;;;22.37;71.78;98721.94;67882;1277;1016403;-64
2023/06/09 04:09:32;;;;;;;25.20;11.90;;;;;;;22.54;71.03;98727.73;67922;1277;1016565;-61
2023/06/09 04:12:35;;;;;;;26.30;12.40;;;;;;;22.58;71.01;98728.98;67940;1277;1016137;-64
2023/06/09 04:15:37;;;;;;;25.70;12.40;;;;;;;22.63;71.07;98729.73;67918;1277;1016592;-63
2023/06/09 04:18:44;;;;;;;25.50;12.10;;;;;;;22.72;70.91;98725.65;67880;1277;1016049;-64
2023/06/09 04:21:47;;;;;;;33.50;12.80;;;;;;;22.82;70.95;98715.60;67895;1277;1016085;-65
2023/06/09 04:24:59;;;;;;;24.30;11.50;;;;;;;22.86;70.94;98711.27;67914;1277;1016331;-61
2023/06/09 04:28:03;;;;;;;22.70;11.00;;;;;;;23.00;70.64;98714.51;67857;1277;1016509;-64
2023/06/09 04:31:08;;;;;;;25.40;12.60;;;;;;;23.14;70.64;98714.12;67884;1276;1016476;-64
2023/06/09 04:34:11;;;;;;;25.60;13.00;;;;;;;23.24;70.00;98707.51;67896;1276;1016401;-63
2023/06/09 04:37:14;;;;;;;27.00;13.70;;;;;;;23.41;69.53;98709.39;67871;1276;1018247;-61
2023/06/09 04:40:21;;;;;;;27.40;13.40;;;;;;;23.52;69.04;98706.42;67836;1276;1016247;-64
2023/06/09 04:43:28;;;;;;;25.20;12.40;;;;;;;23.52;68.98;98706.15;67880;1276;1016467;-63
2023/06/09 04:46:37;;;;;;;27.90;14.10;;;;;;;23.56;69.13;98699.52;67884;1277;1016517;-63
2023/06/09 04:49:41;;;;;;;25.30;12.70;;;;;;;23.74;68.26;98698.96;67915;1276;1016340;-64
2023/06/09 04:52:44;;;;;;;24.60;12.70;;;;;;;23.81;67.82;98700.30;67961;1276;1016204;-62
2023/06/09 04:55:52;;;;;;;26.80;13.10;;;;;;;23.95;67.44;98701.88;67885;1276;1016510;-64
2023/06/09 04:58:56;;;;;;;26.10;12.40;;;;;;;23.93;67.62;98703.49;67901;1276;1016287;-62
2023/06/09 05:01:58;;;;;;;23.30;11.90;;;;;;;23.92;68.02;98701.79;67917;1276;1016483;-62
2023/06/09 05:05:01;;;;;;;25.40;11.80;;;;;;;24.02;68.10;98700.98;67921;1276;1019434;-63
2023/06/09 05:08:04;;;;;;;23.60;10.60;;;;;;;24.21;67.07;98696.30;67940;1276;1016425;-65
2023/06/09 05:11:07;;;;;;;25.50;11.00;;;;;;;24.18;67.31;98702.70;67910;1276;1016207;-64
2023/06/09 05:14:10;;;;;;;23.70;11.20;;;;;;;24.23;66.75;98703.22;67885;1276;1016080;-63
2023/06/09 05:17:13;;;;;;;26.10;11.00;;;;;;;24.17;66.90;98704.45;67935;1276;1016348;-66
2023/06/09 05:20:17;;;;;;;21.20;10.30;;;;;;;24.24;67.06;98704.52;67884;1276;1016633;-63
2023/06/09 05:23:20;;;;;;;22.90;10.00;;;;;;;24.23;66.70;98700.91;67908;1276;1016384;-64
2023/06/09 05:26:22;;;;;;;23.10;9.60;;;;;;;24.24;66.91;98702.70;67926;1276;1016364;-66
2023/06/09 05:29:25;;;;;;;24.00;11.30;;;;;;;24.44;65.97;98702.88;67844;1276;1016850;-62
2023/06/09 05:32:29;;;;;;;23.30;9.80;;;;;;;24.48;65.49;98702.20;67938;1276;1016155;-63
2023/06/09 05:35:32;;;;;;;22.60;10.10;;;;;;;24.65;65.40;98706.34;67931;1276;1016080;-65
2023/06/09 05:38:34;;;;;;;22.30;9.90;;;;;;;24.87;64.88;98704.92;67928;1276;1016434;-62
2023/06/09 05:41:38;;;;;;;23.20;10.40;;;;;;;25.00;64.54;98706.20;67921;1276;1016477;-62
2023/06/09 05:44:41;;;;;;;24.80;10.10;;;;;;;25.11;64.72;98712.25;67922;1276;1016441;-66
2023/06/09 05:47:44;;;;;;;21.60;9.70;;;;;;;25.27;64.19;98713.78;67975;1276;1016151;-66
2023/06/09 05:50:47;;;;;;;21.50;9.30;;;;;;;25.48;64.38;98713.79;67904;1276;1016354;-64
2023/06/09 05:53:53;;;;;;;22.00;8.90;;;;;;;25.81;63.61;98711.96;67928;1276;1016205;-63
2023/06/09 05:56:56;;;;;;;24.40;9.00;;;;;;;26.20;62.65;98720.58;67874;1276;1016500;-64
2023/06/09 05:59:58;;;;;;;25.20;9.00;;;;;;;26.51;60.33;98721.63;67977;1276;1015731;-64
2023/06/09 06:03:01;;;;;;;22.30;9.30;;;;;;;26.49;60.69;98721.98;67913;1276;1016023;-63
2023/06/09 06:06:06;;;;;;;23.20;8.10;;;;;;;26.83;60.66;98725.14;67890;1276;1016022;-67
2023/06/09 06:09:09;;;;;;;22.00;8.20;;;;;;;27.26;59.24;98723.54;67917;1276;1016039;-65
2023/06/09 06:12:12;;;;;;;20.60;8.00;;;;;;;27.46;56.81;98726.32;67931;1276;1016410;-64
2023/06/09 06:15:14;;;;;;;19.90;7.90;;;;;;;27.35;55.29;98724.61;67929;1276;1016412;-67
2023/06/09 06:18:17;;;;;;;22.40;8.30;;;;;;;27.04;55.86;98725.20;67948;1276;1016038;-66
2023/06/09 06:21:24;;;;;;;20.00;7.30;;;;;;;26.80;56.42;98724.30;67946;1276;1016445;-67
2023/06/09 06:24:27;;;;;;;21.20;8.00;;;;;;;26.97;55.52;98723.58;67910;1276;1016398;-64
2023/06/09 06:27:30;;;;;;;20.70;7.50;;;;;;;27.00;56.00;98728.27;67934;1276;1016313;-67
2023/06/09 06:30:34;;;;;;;21.00;7.50;;;;;;;27.11;55.29;98726.39;67904;1276;1016091;-63
2023/06/09 06:33:39;;;;;;;20.40;8.10;;;;;;;26.90;55.89;98726.73;67876;1276;1016419;-66
2023/06/09 06:36:41;;;;;;;20.70;7.90;;;;;;;27.09;55.35;98730.67;67935;1276;1015979;-66
2023/06/09 06:39:49;;;;;;;21.10;7.80;;;;;;;27.12;54.90;98729.79;67911;1276;1016944;-64
2023/06/09 06:42:53;;;;;;;20.80;7.50;;;;;;;26.84;54.81;98730.69;67950;1276;1016328;-64
2023/06/09 06:45:55;;;;;;;19.50;7.50;;;;;;;26.69;55.29;98731.80;67896;1276;1016399;-66
2023/06/09 06:48:58;;;;;;;19.30;7.60;;;;;;;26.68;54.63;98733.54;67901;1276;1016249;-66
2023/06/09 06:52:00;;;;;;;21.40;8.20;;;;;;;26.79;55.20;98737.08;67920;1276;1016868;-66
2023/06/09 06:55:06;;;;;;;19.60;7.50;;;;;;;26.88;54.51;98734.02;67956;1276;1016675;-65
2023/06/09 06:58:10;;;;;;;21.30;7.40;;;;;;;26.92;56.03;98739.17;67934;1276;1016443;-66
2023/06/09 07:01:13;;;;;;;18.50;7.50;;;;;;;27.10;55.31;98741.05;67983;1276;1016437;-67
2023/06/09 07:04:16;;;;;;;19.90;7.40;;;;;;;27.39;55.23;98739.46;67922;1276;1016374;-62
2023/06/09 07:07:19;;;;;;;20.20;7.80;;;;;;;27.50;53.33;98738.30;67931;1276;1018461;-67
2023/06/09 07:10:22;;;;;;;18.90;7.40;;;;;;;27.50;53.87;98740.04;67922;1276;1016756;-62
2023/06/09 07:13:26;;;;;;;20.10;7.50;;;;;;;27.50;52.98;98745.92;67927;1276;1016776;-62
2023/06/09 07:16:31;;;;;;;20.00;7.20;;;;;;;27.49;53.84;98742.52;67944;1276;1016456;-62
2023/06/09 07:19:35;;;;;;;21.20;7.40;;;;;;;27.28;53.11;98745.77;67967;1276;1016132;-67
2023/06/09 07:22:42;;;;;;;22.50;7.80;;;;;;;27.20;53.57;98746.29;67966;1276;1016294;-63
2023/06/09 07:25:45;;;;;;;21.80;7.80;;;;;;;27.26;53.23;98740.59;67950;1276;1016380;-62
2023/06/09 07:28:48;;;;;;;19.90;7.80;;;;;;;27.43;53.51;98737.50;67943;1276;1016355;-65
2023/06/09 07:31:52;;;;;;;23.70;8.40;;;;;;;27.65;52.97;98736.20;67947;1276;1016494;-62
2023/06/09 07:34:57;;;;;;;21.40;8.00;;;;;;;27.74;52.94;98738.20;67908;1254;1016451;-63
2023/06/09 07:38:00;;;;;;;19.20;7.60;;;;;;;27.88;51.77;98732.34;67876;1276;1016422;-66
2023/06/09 07:41:03;;;;;;;21.10;7.60;;;;;;;27.99;51.51;98734.14;67988;1276;1016550;-62
2023/06/09 07:44:08;;;;;;;20.50;7.80;;;;;;;28.36;50.62;98729.52;67955;1276;1016464;-64
2023/06/09 07:47:11;;;;;;;22.40;8.00;;;;;;;28.41;49.77;98726.41;67954;1276;1016005;-67
2023/06/09 07:50:15;;;;;;;21.90;7.70;;;;;;;28.27;49.68;98726.80;67913;1275;1016346;-65
2023/06/09 07:53:18;;;;;;;19.50;7.40;;;;;;;28.38;49.52;98730.71;67940;1276;1016244;-65
2023/06/09 07:56:21;;;;;;;19.60;8.10;;;;;;;28.68;49.37;98733.27;67971;1276;1017326;-67
2023/06/09 07:59:24;;;;;;;18.30;7.20;;;;;;;28.93;48.67;98721.83;67933;1276;1016366;-65
2023/06/09 08:02:28;;;;;;;22.20;8.60;;;;;;;29.56;48.87;98723.03;67944;1276;1016074;-67
2023/06/09 08:05:32;;;;;;;19.20;8.00;;;;;;;29.92;46.50;98719.02;67923;1276;1015902;-65
2023/06/09 08:08:37;;;;;;;19.50;7.40;;;;;;;29.78;45.82;98720.80;67927;1276;1017709;-65
2023/06/09 08:11:40;;;;;;;20.30;7.70;;;;;;;29.52;46.07;98722.56;67929;1276;1016518;-66
2023/06/09 08:14:43;;;;;;;22.30;7.60;;;;;;;29.44;45.53;98716.20;67970;1276;1016467;-68
2023/06/09 08:17:45;;;;;;;22.70;7.60;;;;;;;29.55;45.14;98715.15;67963;1276;1016445;-67
2023/06/09 08:20:49;;;;;;;19.60;7.40;;;;;;;29.95;44.94;98713.71;67880;1276;1016449;-65
2023/06/09 08:23:52;;;;;;;19.70;7.90;;;;;;;30.20;42.57;98718.80;67975;1276;1016326;-67
2023/06/09 08:26:58;;;;;;;18.90;7.90;;;;;;;30.42;42.61;98722.49;67921;1276;1016490;-63
2023/06/09 08:30:00;;;;;;;19.10;7.00;;;;;;;30.72;41.81;98720.50;67922;1276;1016179;-65
2023/06/09 08:33:07;;;;;;;22.10;8.20;;;;;;;31.01;41.40;98717.89;67968;1276;1016244;-63
2023/06/09 08:36:14;;;;;;;22.60;7.40;;;;;;;31.12;42.48;98717.28;67993;1276;1016119;-65
2023/06/09 08:39:17;;;;;;;20.80;7.60;;;;;;;31.41;41.98;98715.23;67979;1276;1016068;-63
2023/06/09 08:42:25;;;;;;;20.30;7.00;;;;;;;31.16;40.97;98713.06;67980;1276;1016390;-63
2023/06/09 08:45:30;;;;;;;20.80;7.40;;;;;;;31.20;41.30;98716.59;67875;1276;1017449;-64
2023/06/09 08:48:38;;;;;;;20.70;7.40;;;;;;;30.94;40.81;98715.02;67991;1276;1016483;-64
2023/06/09 08:51:43;;;;;;;21.10;7.50;;;;;;;30.40;40.94;98714.73;67896;1276;1016434;-63
2023/06/09 08:54:46;;;;;;;19.50;7.10;;;;;;;30.02;42.12;98712.31;67994;1276;1016456;-65
2023/06/09 08:57:49;;;;;;;19.80;7.70;;;;;;;30.21;42.44;98709.35;67892;1276;1016661;-63
2023/06/09 09:01:04;;;;;;;22.60;7.90;;;;;;;30.21;42.24;98708.55;67982;1276;1016384;-65
2023/06/09 09:04:09;;;;;;;20.50;7.80;;;;;;;30.32;42.83;98705.73;67951;1276;1016296;-67
2023/06/09 09:07:15;;;;;;;20.40;7.80;;;;;;;30.36;42.39;98703.07;67907;1276;1016330;-64
2023/06/09 09:10:18;;;;;;;25.30;8.40;;;;;;;30.45;42.69;98701.16;67981;1276;1016163;-65
2023/06/09 09:13:24;;;;;;;20.20;7.70;;;;;;;30.59;42.44;98697.89;67890;1276;1016351;-63
2023/06/09 09:16:27;;;;;;;21.70;7.90;;;;;;;30.43;42.11;98700.23;67936;1276;1016429;-63
2023/06/09 09:19:41;;;;;;;23.10;8.40;;;;;;;30.21;42.40;98695.83;68001;1276;1016180;-63
2023/06/09 09:22:46;;;;;;;19.60;8.00;;;;;;;29.84;42.57;98689.60;67974;1276;1016745;-64
2023/06/09 09:25:52;;;;;;;19.00;7.90;;;;;;;29.79;43.81;98687.73;67974;1276;1015705;-63
2023/06/09 09:28:55;;;;;;;21.10;7.30;;;;;;;30.00;43.60;98681.30;67997;1275;1016371;-62
2023/06/09 09:31:59;;;;;;;22.40;7.60;;;;;;;30.11;42.59;98683.16;68007;1276;1016409;-63
2023/06/09 09:35:03;;;;;;;21.20;8.60;;;;;;;30.30;43.03;98676.92;67966;1276;1018828;-63
2023/06/09 09:38:06;;;;;;;18.60;7.70;;;;;;;30.68;42.42;98678.91;67991;1276;1016462;-63
2023/06/09 09:41:09;;;;;;;19.80;8.20;;;;;;;30.59;41.71;98679.31;67886;1276;1016445;-62
2023/06/09 09:44:12;;;;;;;21.70;8.70;;;;;;;30.47;42.84;98676.83;67953;1276;1016064;-62
2023/06/09 09:47:23;;;;;;;20.20;8.40;;;;;;;30.61;42.91;98676.09;67973;1276;1016694;-63
2023/06/09 09:50:26;;;;;;;22.30;8.50;;;;;;;30.73;42.86;98670.58;67982;1276;1016334;-63
2023/06/09 09:53:32;;;;;;;19.50;8.20;;;;;;;30.70;42.55;98671.88;67960;1276;1016381;-65
2023/06/09 09:56:38;;;;;;;19.70;7.60;;;;;;;30.62;42.78;98673.98;67913;1276;1016355;-64
2023/06/09 09:59:41;;;;;;;19.20;7.50;;;;;;;30.71;42.74;98676.63;67923;1276;1016424;-66
2023/06/09 10:02:45;;;;;;;18.90;7.10;;;;;;;31.09;42.16;98673.40;67952;1276;1016464;-66
2023/06/09 10:05:50;;;;;;;17.30;6.90;;;;;;;31.28;41.16;98670.80;67925;1276;1016366;-62
2023/06/09 10:08:55;;;;;;;21.50;7.60;;;;;;;31.55;42.14;98670.50;67854;1276;1016031;-69
2023/06/09 10:11:58;;;;;;;21.90;6.90;;;;;;;31.94;42.41;98669.23;68026;1276;1017695;-64
2023/06/09 10:15:01;;;;;;;20.20;7.50;;;;;;;32.72;40.96;98669.97;67944;1276;1016704;-70
2023/06/09 10:18:04;;;;;;;22.60;7.30;;;;;;;33.31;39.71;98663.73;67947;1276;1017442;-69
2023/06/09 10:21:07;;;;;;;24.30;7.80;;;;;;;33.14;38.30;98661.20;67909;1276;1016358;-69
2023/06/09 10:24:11;;;;;;;19.00;7.50;;;;;;;32.30;38.57;98652.60;67895;1276;1016488;-68
2023/06/09 10:27:15;;;;;;;19.30;7.30;;;;;;;32.19;40.01;98655.41;67974;1276;1016593;-67
2023/06/09 10:30:18;;;;;;;20.90;8.00;;;;;;;32.32;40.09;98654.09;68027;1276;1016373;-68
2023/06/09 10:33:22;;;;;;;18.20;7.50;;;;;;;32.15;39.97;98651.59;67953;1276;1016362;-68
2023/06/09 10:36:25;;;;;;;18.30;7.50;;;;;;;32.03;39.88;98648.57;68021;1276;1016606;-66
2023/06/09 10:39:28;;;;;;;21.20;7.30;;;;;;;32.16;39.47;98639.86;67931;1276;1016317;-67
2023/06/09 10:42:31;;;;;;;23.30;7.60;;;;;;;32.51;40.08;98631.61;68003;1276;1018553;-67
2023/06/09 10:45:34;;;;;;;19.90;7.60;;;;;;;32.69;39.55;98630.02;67971;1276;1016651;-65
2023/06/09 10:48:37;;;;;;;22.20;7.60;;;;;;;32.37;39.85;98625.05;68017;1276;1016879;-66
2023/06/09 10:51:45;;;;;;;19.40;7.30;;;;;;;32.28;40.44;98623.27;68016;1276;1016470;-67
2023/06/09 10:54:47;;;;;;;19.40;7.80;;;;;;;32.06;40.08;98619.02;67728;1276;1016470;-67
2023/06/09 10:57:50;;;;;;;17.20;7.10;;;;;;;31.81;40.39;98619.28;68008;1276;1016547;-64
2023/06/09 11:00:53;;;;;;;20.40;7.20;;;;;;;31.72;41.23;98616.52;67966;1276;1016485;-68
2023/06/09 11:03:55;;;;;;;21.10;6.90;;;;;;;31.39;40.81;98615.09;68002;1276;1018332;-66
2023/06/09 11:07:06;;;;;;;19.80;6.80;;;;;;;31.57;40.46;98609.02;68011;1276;1016294;-69
2023/06/09 11:10:11;;;;;;;18.90;6.90;;;;;;;32.03;39.32;98600.83;67964;1276;1016500;-67
2023/06/09 11:13:14;;;;;;;19.40;6.50;;;;;;;32.45;38.96;98598.59;68003;1276;1016484;-67
2023/06/09 11:16:16;;;;;;;18.40;6.30;;;;;;;33.16;38.75;98602.38;67967;1276;1017243;-65
2023/06/09 11:19:19;;;;;;;18.90;6.90;;;;;;;33.87;38.23;98597.34;68008;1276;1016709;-67
2023/06/09 11:22:22;;;;;;;20.20;7.00;;;;;;;34.19;36.97;98596.30;68004;1276;1016464;-67
2023/06/09 11:25:26;;;;;;;18.80;7.20;;;;;;;33.46;36.79;98598.73;67974;1276;1016425;-70
2023/06/09 11:28:33;;;;;;;21.70;7.50;;;;;;;32.50;37.62;98599.55;67960;1276;1016202;-65
2023/06/09 11:31:36;;;;;;;20.80;7.60;;;;;;;32.08;39.38;98598.39;67980;1276;1016484;-66
2023/06/09 11:34:40;;;;;;;21.80;7.50;;;;;;;31.83;39.24;98593.63;68003;1276;1016350;-67
2023/06/09 11:37:43;;;;;;;19.10;7.20;;;;;;;31.64;39.73;98592.77;67998;1276;1016429;-67
2023/06/09 11:40:46;;;;;;;24.70;7.00;;;;;;;31.51;40.12;98590.71;68016;1276;1016198;-65
2023/06/09 11:43:49;;;;;;;18.70;7.50;;;;;;;30.98;40.09;98591.54;68007;1276;1016398;-67
2023/06/09 11:46:52;;;;;;;22.50;7.00;;;;;;;30.55;41.15;98593.01;67996;1276;1016133;-68
2023/06/09 11:49:55;;;;;;;22.70;7.70;;;;;;;30.12;41.62;98592.00;68020;1276;1016249;-70
2023/06/09 11:52:58;;;;;;;21.30;7.60;;;;;;;30.00;42.56;98590.97;67940;1276;1016370;-70
2023/06/09 11:56:01;;;;;;;21.60;7.60;;;;;;;30.06;43.08;98584.25;67963;1276;1016365;-67
2023/06/09 11:59:04;;;;;;;18.90;7.90;;;;;;;30.44;42.88;98580.04;67998;1276;1016371;-68
2023/06/09 12:02:08;;;;;;;17.40;6.40;;;;;;;30.90;42.64;98580.01;68018;1276;1016445;-64
2023/06/09 12:05:11;;;;;;;20.40;6.20;;;;;;;30.64;41.85;98580.31;67957;1276;1016404;-65
2023/06/09 12:08:14;;;;;;;18.50;6.30;;;;;;;30.52;41.96;98572.75;68029;1276;1017992;-71
2023/06/09 12:11:19;;;;;;;17.50;6.30;;;;;;;30.26;42.43;98565.58;68019;1276;1016480;-70
2023/06/09 12:14:22;;;;;;;17.50;5.80;;;;;;;30.08;42.18;98560.19;68039;1276;1015703;-69
2023/06/09 12:17:26;;;;;;;21.00;7.10;;;;;;;29.81;42.39;98573.99;68000;1276;1016458;-68
2023/06/09 12:20:29;;;;;;;15.90;6.20;;;;;;;29.38;43.89;98576.90;67975;1276;1016423;-66
2023/06/09 12:34:20;;;;;;;23.10;7.10;;;;;;;28.58;48.29;98607.91;132088;1309;558241;-61
2023/06/09 12:37:23;;;;;;;21.00;7.20;;;;;;;27.40;53.13;98626.82;134480;1291;101252;-62
2023/06/09 12:40:32;;;;;;;23.40;7.50;;;;;;;26.70;55.04;98640.70;134633;1291;24231;-62
2023/06/09 12:43:37;;;;;;;26.60;7.40;;;;;;;26.35;54.51;98649.85;134626;1291;22600;-63
2023/06/09 12:46:43;;;;;;;23.50;7.50;;;;;;;26.02;54.91;98649.84;134600;1291;22574;-61
2023/06/09 12:49:59;;;;;;;24.00;8.00;;;;;;;25.56;56.23;98639.73;134572;1291;22550;-61
2023/06/09 12:53:04;;;;;;;23.70;8.70;;;;;;;25.21;57.34;98627.10;134537;1291;22552;-61
2023/06/09 12:56:09;;;;;;;22.50;8.20;;;;;;;24.72;60.39;98619.52;134586;1291;22547;-60
2023/06/09 12:59:15;;;;;;;20.80;7.80;;;;;;;24.39;61.72;98618.88;134639;1291;22550;-61
2023/06/09 13:02:17;;;;;;;24.50;7.80;;;;;;;24.30;61.97;98614.67;134582;1291;24273;-62
2023/06/09 13:05:23;;;;;;;22.70;8.50;;;;;;;24.35;62.03;98608.45;134604;1291;24361;-61
2023/06/09 13:08:26;;;;;;;25.70;8.70;;;;;;;24.35;62.32;98598.90;134614;1291;22582;-63
2023/06/09 13:11:28;;;;;;;22.30;9.50;;;;;;;24.26;63.56;98591.00;134623;1291;22568;-61
2023/06/09 13:14:30;;;;;;;25.60;9.80;;;;;;;24.24;63.71;98583.80;134627;1291;22543;-62
2023/06/09 13:17:33;;;;;;;24.50;10.30;;;;;;;24.26;64.32;98572.08;134620;1291;22657;-61
2023/06/09 13:20:35;;;;;;;24.80;11.20;;;;;;;24.26;65.48;98563.54;134604;1291;22558;-61
2023/06/09 13:23:37;;;;;;;20.80;9.20;;;;;;;24.20;65.84;98550.33;134754;1288;22537;-63
2023/06/09 13:26:43;;;;;;;21.00;9.10;;;;;;;24.12;65.66;98539.55;134735;1288;22630;-61
2023/06/09 13:29:46;;;;;;;22.50;8.80;;;;;;;23.91;66.15;98541.77;134723;1273;22745;-61
2023/06/09 13:32:48;;;;;;;22.20;9.60;;;;;;;23.80;67.41;98550.59;134741;1288;22570;-62
2023/06/09 13:35:52;;;;;;;20.60;8.20;;;;;;;23.75;66.87;98553.52;134742;1288;22577;-62
2023/06/09 13:38:55;;;;;;;21.50;8.20;;;;;;;23.67;66.51;98558.77;134716;1288;26575;-63
2023/06/09 13:41:57;;;;;;;21.70;8.10;;;;;;;23.55;66.90;98560.73;134747;1288;22544;-61
2023/06/09 13:44:59;;;;;;;23.20;8.90;;;;;;;23.61;66.63;98561.66;134738;1288;22566;-62
2023/06/09 13:48:05;;;;;;;20.40;9.40;;;;;;;23.71;66.63;98563.28;134738;1287;22559;-61
2023/06/09 13:51:07;;;;;;;20.60;8.80;;;;;;;23.78;67.28;98559.09;134713;1288;22557;-63
2023/06/09 13:54:09;;;;;;;22.60;9.90;;;;;;;23.85;67.51;98557.02;134703;1287;22558;-61
2023/06/09 13:57:12;;;;;;;21.30;9.10;;;;;;;24.08;67.44;98556.21;134719;1288;22551;-62
2023/06/09 14:00:15;;;;;;;20.60;9.00;;;;;;;24.29;67.52;98552.59;134733;1288;22537;-61
2023/06/09 14:03:17;;;;;;;19.90;8.20;;;;;;;24.45;67.91;98561.88;134731;1288;22566;-61
2023/06/09 14:06:20;;;;;;;20.20;8.40;;;;;;;24.54;67.63;98570.58;134739;1288;22532;-62